Time;durP1;ratioP1;P1;durP2;ratioP2;P2;SDS_P1;SDS_P2;PMS_P1;PMS_P2;Temp;Humidity;BMP_temperature;BMP_pressure;BME280_temperature;BME280_humidity;BME280_pressure;Samples;Min_cycle;Max_cycle;Signal;HPM_P1;HPM_P2
2023/01/13 05:05:58;;;;;;;0.80;0.47;;;10.80;99.90;;;;;;5003581;23;20235;-69
2023/01/13 05:08:23;;;;;;;0.53;0.40;;;10.80;99.90;;;;;;4955352;29;20522;-69
2023/01/13 05:10:49;;;;;;;0.30;0.30;;;10.80;99.90;;;;;;4955328;29;20240;-69
2023/01/13 05:18:44;;;;;;;0.43;0.43;;;10.90;99.90;;;;;;4947164;29;20212;-70
2023/01/13 05:25:20;;;;;;;0.50;0.50;;;10.90;99.90;;;;;;4954524;29;20643;-69
2023/01/13 05:26:39;;;;;;;0.50;0.50;;;10.90;99.90;;;;;;4954909;29;20196;-70
2023/01/13 05:29:04;;;;;;;0.40;0.30;;;10.90;99.90;;;;;;4954806;29;20192;-71
2023/01/13 05:31:30;;;;;;;0.57;0.57;;;10.90;99.90;;;;;;4955118;29;20178;-69
2023/01/13 05:33:55;;;;;;;0.70;0.50;;;10.90;99.90;;;;;;4953636;29;20256;-70
2023/01/13 05:36:21;;;;;;;0.50;0.40;;;10.90;99.90;;;;;;4954594;29;20635;-69
2023/01/13 05:38:47;;;;;;;0.40;0.40;;;10.90;99.90;;;;;;4947289;29;20225;-69
2023/01/13 05:43:56;;;;;;;0.30;0.30;;;10.90;99.90;;;;;;4937139;29;20205;-69
2023/01/13 05:46:22;;;;;;;0.30;0.30;;;10.90;99.90;;;;;;4955280;29;20180;-70
2023/01/13 05:48:48;;;;;;;1.33;0.73;;;11.00;99.90;;;;;;4954328;29;20252;-70
2023/01/13 05:51:13;;;;;;;0.30;0.30;;;11.00;99.90;;;;;;4954661;29;20181;-70
2023/01/13 05:53:39;;;;;;;0.53;0.50;;;11.00;99.90;;;;;;4954257;29;20189;-70
2023/01/13 05:56:06;;;;;;;0.50;0.50;;;11.00;99.90;;;;;;4954737;29;20539;-70
2023/01/13 05:58:32;;;;;;;0.57;0.57;;;11.00;99.90;;;;;;4954569;29;20232;-68
2023/01/13 06:01:04;;;;;;;0.47;0.37;;;11.00;99.90;;;;;;4954699;29;20591;-69
2023/01/13 06:03:29;;;;;;;1.45;0.50;;;11.00;99.90;;;;;;4954162;29;20654;-69
2023/01/13 06:05:58;;;;;;;0.63;0.63;;;10.90;99.90;;;;;;4917499;29;1092470;-71
2023/01/13 06:08:24;;;;;;;0.70;0.50;;;10.90;99.90;;;;;;4954924;29;20181;-69
2023/01/13 06:10:50;;;;;;;0.50;0.50;;;10.80;99.90;;;;;;4955124;29;20185;-69
2023/01/13 06:13:15;;;;;;;0.40;0.40;;;10.80;99.90;;;;;;4950447;29;20178;-69
2023/01/13 06:15:41;;;;;;;0.40;0.40;;;10.80;99.90;;;;;;4940284;29;20201;-69
2023/01/13 06:18:06;;;;;;;0.40;0.40;;;10.80;99.90;;;;;;4939153;29;20200;-69
2023/01/13 06:20:32;;;;;;;0.40;0.40;;;10.80;99.90;;;;;;4939116;29;20641;-69
2023/01/13 06:22:59;;;;;;;2.87;0.40;;;10.80;99.90;;;;;;4916602;29;20182;-69
2023/01/13 06:25:49;;;;;;;0.63;0.30;;;10.80;99.90;;;;;;4920454;29;20801;-69
2023/01/13 06:28:15;;;;;;;0.40;0.40;;;10.80;99.90;;;;;;4942582;29;20213;-68
2023/01/13 06:31:02;;;;;;;0.30;0.30;;;10.80;99.90;;;;;;4936190;29;20225;-69
2023/01/13 06:33:34;;;;;;;1.30;0.47;;;10.90;99.90;;;;;;4926688;29;20240;-70
2023/01/13 06:36:06;;;;;;;0.70;0.47;;;10.90;99.90;;;;;;4922696;29;20544;-68
2023/01/13 06:38:34;;;;;;;0.70;0.70;;;10.90;99.90;;;;;;4935953;29;20591;-69
2023/01/13 06:41:00;;;;;;;0.45;0.45;;;10.90;99.90;;;;;;4935943;29;20184;-70
2023/01/13 06:43:26;;;;;;;0.40;0.40;;;11.00;99.90;;;;;;4934835;29;20248;-69
2023/01/13 06:45:54;;;;;;;0.40;0.40;;;11.00;99.90;;;;;;4916960;29;20166;-71
2023/01/13 06:48:26;;;;;;;0.47;0.40;;;11.00;99.90;;;;;;4923175;29;20217;-71
2023/01/13 06:50:52;;;;;;;0.50;0.50;;;11.00;99.90;;;;;;4915411;29;20242;-69
2023/01/13 06:53:19;;;;;;;3.13;0.75;;;11.00;99.90;;;;;;4899351;29;20180;-73
2023/01/13 06:55:44;;;;;;;0.40;0.40;;;11.00;99.90;;;;;;4949751;29;20544;-71
2023/01/13 06:58:10;;;;;;;2.00;0.40;;;10.90;99.90;;;;;;4957673;29;20221;-70
2023/01/13 07:00:36;;;;;;;0.87;0.60;;;10.90;99.90;;;;;;4934981;29;20179;-72
2023/01/13 07:03:06;;;;;;;0.40;0.40;;;10.90;99.90;;;;;;4930409;29;20184;-71
2023/01/13 07:05:31;;;;;;;0.40;0.40;;;10.80;99.90;;;;;;4921800;29;20246;-70
2023/01/13 07:07:57;;;;;;;0.40;0.40;;;10.80;99.90;;;;;;4938865;29;20201;-71
2023/01/13 07:10:24;;;;;;;0.47;0.47;;;10.80;99.90;;;;;;4939172;29;20682;-71
2023/01/13 07:15:34;;;;;;;1.10;0.50;;;10.80;99.90;;;;;;4938971;29;20260;-70
2023/01/13 07:18:01;;;;;;;0.30;0.30;;;10.80;99.90;;;;;;4921883;29;20594;-69
2023/01/13 07:20:28;;;;;;;0.30;0.30;;;10.90;99.90;;;;;;4938514;29;20182;-71
2023/01/13 07:22:55;;;;;;;0.40;0.40;;;10.90;99.90;;;;;;4938154;29;20181;-71
2023/01/13 07:25:21;;;;;;;0.35;0.35;;;10.90;99.90;;;;;;4938349;29;20209;-70
2023/01/13 07:27:46;;;;;;;0.60;0.55;;;10.90;99.90;;;;;;4937505;29;20187;-70
2023/01/13 07:30:12;;;;;;;0.33;0.33;;;10.90;99.90;;;;;;4919523;29;20183;-70
2023/01/13 07:32:38;;;;;;;0.38;0.38;;;10.90;99.90;;;;;;4933886;29;20652;-70
2023/01/13 07:35:04;;;;;;;0.50;0.50;;;10.90;99.90;;;;;;4919502;29;20205;-72
2023/01/13 07:37:36;;;;;;;0.93;0.55;;;10.90;99.90;;;;;;4919589;29;20206;-72
2023/01/13 07:40:03;;;;;;;1.15;0.43;;;11.00;99.90;;;;;;4919491;29;20519;-72
2023/01/13 07:45:13;;;;;;;0.65;0.50;;;11.00;99.90;;;;;;4919625;29;20216;-71
2023/01/13 07:47:39;;;;;;;0.73;0.50;;;11.10;99.90;;;;;;4933390;29;20266;-71
2023/01/13 07:50:05;;;;;;;0.60;0.50;;;11.10;99.90;;;;;;4938519;29;20179;-69
2023/01/13 07:52:30;;;;;;;0.50;0.50;;;11.10;99.90;;;;;;4938414;29;20405;-71
2023/01/13 07:54:56;;;;;;;0.40;0.40;;;11.20;99.90;;;;;;4937390;29;20569;-71
2023/01/13 07:57:22;;;;;;;0.30;0.30;;;11.20;99.90;;;;;;4920722;29;20245;-71
2023/01/13 07:59:47;;;;;;;0.60;0.37;;;11.30;99.90;;;;;;4938123;29;20174;-71
2023/01/13 08:02:13;;;;;;;0.30;0.30;;;11.30;99.90;;;;;;4938360;29;20179;-72
2023/01/13 08:04:38;;;;;;;0.80;0.80;;;11.30;99.90;;;;;;4937793;29;20233;-71
2023/01/13 08:07:05;;;;;;;1.30;1.20;;;11.40;99.90;;;;;;4919663;29;20199;-70
2023/01/13 08:09:30;;;;;;;0.50;0.50;;;11.40;99.90;;;;;;4938230;29;20173;-67
2023/01/13 08:14:40;;;;;;;0.57;0.57;;;11.40;99.90;;;;;;4937362;29;20235;-71
2023/01/13 08:17:09;;;;;;;0.67;0.67;;;11.50;99.90;;;;;;4937803;29;20182;-72
2023/01/13 08:19:35;;;;;;;0.40;0.40;;;11.50;99.90;;;;;;4930496;29;20451;-72
2023/01/13 08:22:00;;;;;;;1.47;0.40;;;11.50;99.90;;;;;;4937337;29;20411;-72
2023/01/13 08:24:26;;;;;;;0.30;0.30;;;11.50;99.90;;;;;;4914390;29;20210;-71
2023/01/13 08:26:52;;;;;;;1.03;0.60;;;11.50;99.90;;;;;;4937313;29;20176;-73
2023/01/13 08:29:17;;;;;;;0.40;0.37;;;11.60;99.90;;;;;;4937260;29;20167;-72
2023/01/13 08:31:43;;;;;;;0.30;0.30;;;11.60;99.90;;;;;;4937203;29;20175;-74
2023/01/13 08:34:09;;;;;;;0.70;0.70;;;11.60;99.90;;;;;;4935888;29;20203;-70
2023/01/13 08:36:34;;;;;;;0.40;0.40;;;11.70;99.90;;;;;;4936916;29;20247;-65
2023/01/13 08:39:00;;;;;;;0.53;0.53;;;11.80;99.90;;;;;;4936324;29;20285;-66
2023/01/13 08:44:10;;;;;;;0.50;0.50;;;11.90;99.90;;;;;;4935872;29;20205;-66
2023/01/13 08:46:36;;;;;;;0.47;0.47;;;11.80;99.90;;;;;;4934407;29;20408;-65
2023/01/13 08:49:02;;;;;;;0.60;0.53;;;11.80;99.90;;;;;;4936120;29;20443;-66
2023/01/13 08:51:27;;;;;;;0.60;0.60;;;11.80;99.90;;;;;;4936102;29;20182;-68
2023/01/13 08:53:53;;;;;;;0.83;0.53;;;11.70;99.90;;;;;;4936490;29;20271;-67
2023/01/13 08:56:18;;;;;;;1.83;0.83;;;11.60;99.90;;;;;;4920225;29;20175;-69
2023/01/13 08:58:44;;;;;;;1.00;0.53;;;11.40;99.90;;;;;;4937275;29;20284;-69
2023/01/13 09:01:14;;;;;;;1.23;0.80;;;11.30;99.90;;;;;;4935982;29;20644;-69
2023/01/13 09:03:40;;;;;;;0.90;0.65;;;11.10;99.90;;;;;;4932695;29;20222;-69
2023/01/13 09:06:06;;;;;;;0.65;0.65;;;11.10;99.90;;;;;;4935486;29;20193;-69
2023/01/13 09:08:32;;;;;;;0.60;0.57;;;11.00;99.90;;;;;;4935335;29;20646;-69
2023/01/13 09:10:58;;;;;;;0.63;0.63;;;11.00;99.90;;;;;;4935744;29;20421;-69
2023/01/13 09:13:23;;;;;;;0.30;0.30;;;10.90;99.90;;;;;;4935409;29;20212;-69
2023/01/13 09:15:50;;;;;;;1.43;0.57;;;10.90;99.90;;;;;;4935558;29;20201;-70
2023/01/13 09:18:16;;;;;;;0.75;0.75;;;10.80;99.90;;;;;;4934902;29;20292;-72
2023/01/13 09:20:41;;;;;;;1.17;0.70;;;10.70;99.90;;;;;;4918123;29;20270;-72
2023/01/13 09:23:07;;;;;;;0.77;0.53;;;10.60;99.90;;;;;;4917363;29;20186;-72
2023/01/13 09:25:35;;;;;;;2.40;0.40;;;10.50;99.90;;;;;;4917483;29;20653;-73
2023/01/13 09:28:01;;;;;;;0.30;0.30;;;10.40;99.90;;;;;;4917332;29;20183;-73
2023/01/13 09:30:27;;;;;;;0.30;0.30;;;10.30;99.90;;;;;;4933274;29;20182;-70
2023/01/13 09:34:58;;;;;;;0.37;0.37;;;10.20;99.90;;;;;;4934922;29;20243;-72
2023/01/13 09:35:38;;;;;;;0.50;0.50;;;10.10;99.90;;;;;;4932411;29;20205;-71
2023/01/13 09:38:04;;;;;;;0.83;0.37;;;10.10;99.90;;;;;;4935873;29;20202;-70
2023/01/13 09:40:30;;;;;;;0.50;0.50;;;10.00;99.90;;;;;;4935540;29;20169;-69
2023/01/13 09:46:04;;;;;;;0.40;0.40;;;10.00;99.90;;;;;;4921929;29;20180;-69
2023/01/13 09:48:50;;;;;;;1.20;0.40;;;9.90;99.90;;;;;;4936420;29;20659;-72
2023/01/13 09:51:29;;;;;;;0.40;0.40;;;10.00;99.90;;;;;;4936419;29;20177;-72
2023/01/13 09:54:24;;;;;;;0.30;0.30;;;10.00;99.90;;;;;;4935803;29;20189;-67
2023/01/13 09:56:50;;;;;;;0.50;0.50;;;10.10;99.90;;;;;;4914832;29;20182;-69
2023/01/13 09:59:15;;;;;;;0.40;0.40;;;10.10;99.90;;;;;;4907605;29;20259;-71
2023/01/13 10:02:09;;;;;;;1.40;0.57;;;10.20;99.90;;;;;;4917373;29;20625;-69
2023/01/13 10:04:35;;;;;;;0.30;0.30;;;10.20;99.90;;;;;;4877729;29;20202;-69
2023/01/13 10:07:04;;;;;;;0.30;0.30;;;10.30;99.90;;;;;;4916993;29;20197;-68
2023/01/13 10:09:50;;;;;;;0.40;0.30;;;10.40;99.90;;;;;;4917105;29;20260;-69
2023/01/13 10:15:14;;;;;;;0.50;0.50;;;10.40;99.90;;;;;;4917023;29;20743;-68
2023/01/13 10:17:46;;;;;;;0.30;0.30;;;10.40;99.90;;;;;;4917064;29;20290;-69
2023/01/13 10:20:45;;;;;;;0.50;0.40;;;10.40;99.90;;;;;;4917234;29;20170;-69
2023/01/13 10:23:20;;;;;;;0.40;0.40;;;10.40;99.90;;;;;;4917911;29;20513;-69
2023/01/13 10:26:04;;;;;;;0.55;0.50;;;10.30;99.90;;;;;;4933992;29;20274;-71
2023/01/13 10:28:30;;;;;;;0.40;0.32;;;10.30;99.90;;;;;;4934058;29;20213;-69
2023/01/13 10:30:55;;;;;;;0.77;0.40;;;10.30;99.90;;;;;;4937329;29;20631;-71
2023/01/13 10:33:27;;;;;;;0.40;0.40;;;10.20;99.90;;;;;;4937645;29;20177;-69
2023/01/13 10:36:03;;;;;;;0.60;0.60;;;10.20;99.90;;;;;;4937852;29;20170;-70
2023/01/13 10:38:41;;;;;;;2.97;0.68;;;10.20;99.90;;;;;;4939082;29;20213;-71
2023/01/13 10:41:18;;;;;;;0.50;0.50;;;10.20;99.90;;;;;;4939871;29;20166;-70
2023/01/13 10:43:50;;;;;;;2.40;0.93;;;10.10;99.90;;;;;;4922112;29;20533;-71
2023/01/13 10:46:16;;;;;;;0.73;0.47;;;10.20;99.90;;;;;;4939668;29;20181;-71
2023/01/13 10:48:56;;;;;;;0.60;0.60;;;10.20;99.90;;;;;;4939563;29;20240;-70
2023/01/13 10:51:38;;;;;;;0.60;0.50;;;10.20;99.90;;;;;;4939186;29;20182;-68
2023/01/13 10:54:10;;;;;;;0.30;0.30;;;10.30;99.90;;;;;;4924466;29;20306;-70
2023/01/13 10:56:36;;;;;;;0.50;0.50;;;10.40;99.90;;;;;;4920358;29;20197;-66
2023/01/13 10:59:23;;;;;;;0.40;0.30;;;10.50;99.90;;;;;;4920448;29;20458;-70
2023/01/13 11:02:16;;;;;;;0.77;0.40;;;10.60;99.90;;;;;;4920492;29;20186;-71
2023/01/13 11:05:01;;;;;;;0.37;0.37;;;10.60;99.90;;;;;;4927499;29;20199;-70
2023/01/13 11:07:45;;;;;;;0.40;0.40;;;10.60;99.90;;;;;;4934942;29;20842;-70
2023/01/13 11:10:26;;;;;;;1.00;0.50;;;10.40;99.90;;;;;;4934944;29;20372;-70
2023/01/13 11:13:19;;;;;;;0.90;0.43;;;10.40;99.90;;;;;;4919639;29;20179;-70
2023/01/13 11:16:04;;;;;;;0.95;0.57;;;10.30;99.90;;;;;;4919736;29;20207;-71
2023/01/13 11:18:50;;;;;;;0.40;0.40;;;10.20;99.90;;;;;;4920042;29;20213;-68
2023/01/13 11:21:29;;;;;;;0.50;0.40;;;10.10;99.90;;;;;;4919846;29;20243;-69
2023/01/13 11:24:09;;;;;;;0.60;0.60;;;9.90;99.90;;;;;;4919434;29;20193;-70
2023/01/13 11:26:46;;;;;;;0.40;0.40;;;9.90;99.90;;;;;;4920135;29;20225;-70
2023/01/13 11:29:28;;;;;;;0.82;0.50;;;9.90;99.90;;;;;;4919987;29;20525;-70
2023/01/13 11:32:06;;;;;;;0.40;0.40;;;9.80;99.90;;;;;;4904566;29;20190;-71
2023/01/13 11:34:35;;;;;;;0.40;0.40;;;9.80;99.90;;;;;;4919392;29;20225;-70
2023/01/13 11:37:08;;;;;;;1.50;0.50;;;9.80;99.90;;;;;;4919594;29;20174;-70
2023/01/13 11:40:11;;;;;;;0.82;0.60;;;9.70;99.90;;;;;;4919792;29;20257;-69
2023/01/13 11:42:49;;;;;;;0.45;0.45;;;9.70;99.90;;;;;;4919303;29;20174;-70
2023/01/13 11:45:30;;;;;;;0.50;0.50;;;9.70;99.90;;;;;;4919802;29;20576;-70
2023/01/13 11:47:58;;;;;;;1.15;0.70;;;9.60;99.90;;;;;;4919345;29;20185;-70
2023/01/13 11:50:35;;;;;;;1.20;0.68;;;9.60;99.90;;;;;;4918238;29;20178;-68
2023/01/13 11:53:20;;;;;;;0.73;0.40;;;9.50;99.90;;;;;;4919463;29;20173;-70
2023/01/13 11:56:26;;;;;;;0.50;0.40;;;9.50;99.90;;;;;;4919170;29;20209;-70
2023/01/13 11:59:20;;;;;;;0.60;0.47;;;9.50;99.90;;;;;;4890372;29;20286;-69
2023/01/13 12:02:18;;;;;;;0.40;0.40;;;9.50;99.90;;;;;;4894721;29;20680;-74
2023/01/13 12:04:49;;;;;;;0.40;0.40;;;9.60;99.90;;;;;;4920451;29;20212;-72
2023/01/13 12:07:33;;;;;;;0.50;0.50;;;9.60;99.90;;;;;;4938075;29;20173;-69
2023/01/13 12:10:11;;;;;;;0.80;0.75;;;9.70;99.90;;;;;;4938262;29;20541;-68
2023/01/13 12:12:59;;;;;;;1.92;1.08;;;9.70;99.90;;;;;;4938082;29;20172;-68
2023/01/13 12:15:27;;;;;;;0.60;0.60;;;9.90;99.90;;;;;;4922200;29;20298;-69
2023/01/13 12:18:08;;;;;;;0.70;0.70;;;10.00;99.90;;;;;;4938110;29;20196;-70
2023/01/13 12:21:00;;;;;;;0.77;0.77;;;10.00;99.90;;;;;;4938082;29;20173;-70
2023/01/13 12:23:31;;;;;;;0.70;0.70;;;10.10;99.90;;;;;;4936748;29;20522;-67
2023/01/13 12:26:12;;;;;;;0.60;0.60;;;10.10;99.90;;;;;;4937920;29;20581;-70
2023/01/13 12:28:43;;;;;;;0.60;0.60;;;10.10;99.90;;;;;;4919671;29;20590;-69
2023/01/13 12:31:09;;;;;;;0.50;0.50;;;10.10;99.90;;;;;;4921024;29;20721;-69
2023/01/13 12:34:01;;;;;;;0.70;0.70;;;10.10;99.90;;;;;;4937058;29;20186;-70
2023/01/13 12:36:48;;;;;;;0.73;0.73;;;10.20;99.90;;;;;;4936928;29;20205;-67
2023/01/13 12:39:39;;;;;;;0.40;0.40;;;10.30;99.90;;;;;;4935999;29;20484;-68
2023/01/13 12:45:18;;;;;;;0.77;0.77;;;10.70;99.90;;;;;;4922960;29;20535;-69
2023/01/13 12:47:47;;;;;;;1.93;1.40;;;10.70;99.90;;;;;;4918524;29;20443;-70
2023/01/13 12:50:25;;;;;;;0.68;0.50;;;10.70;99.90;;;;;;4901238;29;21014;-70
2023/01/13 12:52:54;;;;;;;0.80;0.80;;;10.60;99.90;;;;;;4917133;29;20191;-70
2023/01/13 12:55:21;;;;;;;0.80;0.80;;;10.50;99.90;;;;;;4918024;29;20202;-71
2023/01/13 12:58:04;;;;;;;0.80;0.80;;;10.50;99.90;;;;;;4918055;29;20204;-70
2023/01/13 13:00:56;;;;;;;2.10;0.90;;;10.50;99.90;;;;;;4918143;29;20182;-67
2023/01/13 13:03:31;;;;;;;1.97;0.90;;;10.50;99.90;;;;;;4936536;29;20777;-69
2023/01/13 13:06:00;;;;;;;3.25;1.05;;;10.50;99.90;;;;;;4937017;29;20434;-69
2023/01/13 13:08:43;;;;;;;0.87;0.60;;;10.50;99.90;;;;;;4937164;29;20184;-70
2023/01/13 13:14:05;;;;;;;0.60;0.60;;;10.50;99.90;;;;;;4936145;29;20559;-69
2023/01/13 13:16:34;;;;;;;1.52;1.00;;;10.50;99.90;;;;;;4937021;29;20165;-70
2023/01/13 13:19:21;;;;;;;1.40;0.73;;;10.40;99.90;;;;;;4936727;29;20207;-70
2023/01/13 13:22:16;;;;;;;2.70;0.50;;;10.40;99.90;;;;;;4936581;29;20505;-69
2023/01/13 13:25:22;;;;;;;1.80;1.10;;;10.40;99.90;;;;;;4927859;29;20219;-68
2023/01/13 13:28:21;;;;;;;2.10;0.57;;;10.40;99.90;;;;;;4842239;29;20207;-70
2023/01/13 13:31:01;;;;;;;3.28;2.28;;;10.40;99.90;;;;;;4828198;29;20197;-67
2023/01/13 13:34:16;;;;;;;0.80;0.80;;;10.50;99.90;;;;;;4858981;29;20190;-68
2023/01/13 13:36:52;;;;;;;1.85;0.60;;;10.50;99.90;;;;;;4803086;29;20193;-68
2023/01/13 13:47:56;;;;;;;1.70;1.35;;;10.40;99.90;;;;;;4803289;29;20312;-71
2023/01/13 13:50:27;;;;;;;0.73;0.50;;;10.50;99.90;;;;;;4804397;29;20364;-71
2023/01/13 13:53:04;;;;;;;0.55;0.55;;;10.50;99.90;;;;;;4800662;29;20190;-72
2023/01/13 13:55:31;;;;;;;0.50;0.50;;;10.60;99.90;;;;;;4786319;30;20216;-69
2023/01/13 13:58:00;;;;;;;1.35;0.63;;;10.60;99.90;;;;;;4803098;29;20297;-70
2023/01/13 14:00:32;;;;;;;0.80;0.40;;;10.70;99.90;;;;;;4803082;29;20183;-69
2023/01/13 14:03:18;;;;;;;0.52;0.50;;;10.80;99.90;;;;;;4803989;29;20229;-69
2023/01/13 14:05:59;;;;;;;3.63;0.98;;;10.80;99.90;;;;;;4850411;29;20227;-69
2023/01/13 14:08:28;;;;;;;0.50;0.50;;;10.70;99.90;;;;;;4934859;29;20234;-67
2023/01/13 14:10:53;;;;;;;0.95;0.95;;;10.70;99.90;;;;;;4918773;29;20179;-69
2023/01/13 14:13:30;;;;;;;0.40;0.40;;;10.70;99.90;;;;;;4935742;29;20672;-67
2023/01/13 14:16:00;;;;;;;2.80;0.68;;;10.60;99.90;;;;;;4935728;29;20181;-69
2023/01/13 14:18:28;;;;;;;5.55;1.17;;;10.50;99.90;;;;;;4935923;29;20295;-68
2023/01/13 14:21:16;;;;;;;1.02;0.52;;;10.40;99.90;;;;;;4935842;29;20659;-67
2023/01/13 14:23:50;;;;;;;1.00;0.40;;;10.30;99.90;;;;;;4918321;29;20644;-68
2023/01/13 14:26:16;;;;;;;0.40;0.40;;;10.20;99.90;;;;;;4935521;29;20173;-69
2023/01/13 14:28:42;;;;;;;4.20;0.60;;;10.10;99.90;;;;;;4917021;29;20246;-70
2023/01/13 14:31:09;;;;;;;0.40;0.40;;;9.80;99.90;;;;;;4916945;29;20310;-70
2023/01/13 14:33:45;;;;;;;0.40;0.40;;;9.50;99.90;;;;;;4916787;29;20185;-71
2023/01/13 14:36:19;;;;;;;0.52;0.52;;;9.30;99.90;;;;;;4917010;29;20241;-69
2023/01/13 14:38:47;;;;;;;0.65;0.50;;;9.00;99.90;;;;;;4916622;29;20194;-73
2023/01/13 14:41:23;;;;;;;1.05;0.40;;;8.90;99.90;;;;;;4933240;29;20543;-71
2023/01/13 14:43:53;;;;;;;0.50;0.50;;;8.80;99.90;;;;;;4916421;29;20198;-73
2023/01/13 14:46:21;;;;;;;1.77;0.82;;;8.60;99.90;;;;;;4923554;29;20256;-72
2023/01/13 14:48:49;;;;;;;0.80;0.70;;;8.40;99.90;;;;;;4935200;29;20248;-71
2023/01/13 14:51:24;;;;;;;0.85;0.65;;;8.40;99.90;;;;;;4935367;29;20181;-72
2023/01/13 14:53:51;;;;;;;0.73;0.73;;;8.30;99.90;;;;;;4934917;29;20298;-69
2023/01/13 14:56:38;;;;;;;0.55;0.52;;;8.30;99.90;;;;;;4920257;29;20182;-73
2023/01/13 14:59:33;;;;;;;0.40;0.40;;;8.20;99.90;;;;;;4927402;29;20230;-72
2023/01/13 15:02:01;;;;;;;1.55;0.68;;;8.20;99.90;;;;;;4916063;29;20189;-72
2023/01/13 15:04:35;;;;;;;1.15;0.85;;;8.10;99.90;;;;;;4919379;29;20681;-72
2023/01/13 15:07:02;;;;;;;0.68;0.63;;;8.00;99.90;;;;;;4930798;29;20293;-74
2023/01/13 15:09:37;;;;;;;1.02;0.93;;;7.90;99.90;;;;;;4932481;29;20222;-72
2023/01/13 15:12:29;;;;;;;1.80;1.40;;;7.90;99.90;;;;;;4929427;29;20180;-72
2023/01/13 15:14:55;;;;;;;0.75;0.60;;;7.80;99.90;;;;;;4934959;29;20193;-72
2023/01/13 15:17:21;;;;;;;0.60;0.60;;;7.80;99.90;;;;;;4938775;29;20660;-71
2023/01/13 15:19:46;;;;;;;1.00;0.60;;;7.70;99.90;;;;;;4938767;29;20465;-72
2023/01/13 15:22:12;;;;;;;0.50;0.50;;;7.70;99.90;;;;;;4937949;29;20181;-74
2023/01/13 15:24:38;;;;;;;2.50;1.87;;;7.60;99.90;;;;;;4936759;29;20220;-73
2023/01/13 15:27:24;;;;;;;2.63;1.13;;;7.50;99.90;;;;;;4919860;29;20528;-73
2023/01/13 15:29:50;;;;;;;2.72;1.60;;;7.50;99.90;;;;;;4920080;29;20188;-72
2023/01/13 15:32:20;;;;;;;3.17;2.00;;;7.50;99.90;;;;;;4936764;29;20180;-72
2023/01/13 15:34:47;;;;;;;1.45;1.05;;;7.40;99.90;;;;;;4938068;29;20194;-72
2023/01/13 15:37:14;;;;;;;4.25;1.00;;;7.40;99.90;;;;;;4938334;29;20593;-69
2023/01/13 15:39:39;;;;;;;2.00;1.42;;;7.50;99.90;;;;;;4920659;29;20639;-70
2023/01/13 15:47:34;;;;;;;6.47;1.10;;;7.40;99.90;;;;;;4937281;29;20271;-68
2023/01/13 15:50:00;;;;;;;1.58;1.48;;;7.40;99.90;;;;;;4937882;29;20254;-65
2023/01/13 15:52:27;;;;;;;1.03;1.00;;;7.40;99.90;;;;;;4932387;29;20181;-67
2023/01/13 15:54:53;;;;;;;0.82;0.73;;;7.40;99.90;;;;;;4923203;29;20567;-67
2023/01/13 15:57:22;;;;;;;1.20;0.95;;;7.30;99.90;;;;;;4928049;29;20197;-69
2023/01/13 15:59:49;;;;;;;0.80;0.80;;;7.30;99.90;;;;;;4920008;29;20257;-67
2023/01/13 16:02:17;;;;;;;0.73;0.70;;;7.20;99.90;;;;;;4918914;29;20231;-69
2023/01/13 16:05:06;;;;;;;0.50;0.50;;;7.20;99.90;;;;;;4941189;29;20268;-70
2023/01/13 16:07:31;;;;;;;0.93;0.70;;;7.20;99.90;;;;;;4929107;29;20257;-68
2023/01/13 16:10:00;;;;;;;0.60;0.60;;;7.10;99.90;;;;;;4937724;29;20601;-66
2023/01/13 16:12:26;;;;;;;0.85;0.85;;;7.10;99.90;;;;;;4942478;29;20177;-69
2023/01/13 16:14:52;;;;;;;2.93;1.40;;;7.00;99.90;;;;;;4937535;29;20229;-65
2023/01/13 16:17:24;;;;;;;1.10;0.80;;;7.10;99.90;;;;;;4936756;29;20185;-67
2023/01/13 16:19:50;;;;;;;0.70;0.70;;;7.10;99.90;;;;;;4942826;29;20197;-65
2023/01/13 16:22:17;;;;;;;0.57;0.57;;;7.10;99.90;;;;;;4939141;29;20260;-66
2023/01/13 16:24:43;;;;;;;1.10;1.00;;;7.20;99.90;;;;;;4918604;29;20201;-66
2023/01/13 16:27:13;;;;;;;0.82;0.82;;;7.20;99.90;;;;;;4931764;29;20698;-65
2023/01/13 16:29:39;;;;;;;1.13;1.05;;;7.20;99.90;;;;;;4936566;29;20716;-67
2023/01/13 16:32:05;;;;;;;1.47;1.07;;;7.20;99.90;;;;;;4937660;29;20262;-66
2023/01/13 16:34:31;;;;;;;0.83;0.83;;;7.10;99.90;;;;;;4936880;29;20943;-64
2023/01/13 16:36:57;;;;;;;1.45;1.35;;;7.20;99.90;;;;;;4937543;29;20186;-66
2023/01/13 16:39:23;;;;;;;1.90;0.80;;;7.10;99.90;;;;;;4938828;29;20279;-66
2023/01/13 16:41:49;;;;;;;0.85;0.85;;;7.10;99.90;;;;;;4938505;29;20406;-66
2023/01/13 16:44:15;;;;;;;4.22;1.67;;;7.20;99.90;;;;;;4917655;29;20197;-65
2023/01/13 16:46:43;;;;;;;1.03;0.77;;;7.20;99.90;;;;;;4911224;29;20513;-67
2023/01/13 16:49:11;;;;;;;1.40;1.05;;;7.10;99.90;;;;;;4925394;29;20424;-66
2023/01/13 16:51:37;;;;;;;2.38;1.70;;;7.10;99.90;;;;;;4937115;29;20207;-69
2023/01/13 16:54:03;;;;;;;4.00;1.57;;;7.00;99.90;;;;;;4903749;29;20224;-67
2023/01/13 16:56:31;;;;;;;1.57;1.20;;;7.00;99.90;;;;;;4936601;29;20260;-66
2023/01/13 16:59:01;;;;;;;1.45;1.35;;;6.90;99.90;;;;;;4936401;29;20288;-67
2023/01/13 17:01:33;;;;;;;6.13;1.60;;;6.80;99.90;;;;;;4914073;29;20181;-65
2023/01/13 17:03:59;;;;;;;1.25;1.17;;;6.70;99.90;;;;;;4917421;29;20257;-66
2023/01/13 17:06:41;;;;;;;1.03;1.03;;;6.70;99.90;;;;;;4924571;29;20190;-69
2023/01/13 17:09:16;;;;;;;1.55;1.30;;;6.50;99.90;;;;;;4936178;29;20416;-65
2023/01/13 17:11:42;;;;;;;1.65;1.33;;;6.40;99.90;;;;;;4936985;29;20180;-68
2023/01/13 17:14:08;;;;;;;0.90;0.90;;;6.40;99.90;;;;;;4935852;29;20199;-64
2023/01/13 17:16:33;;;;;;;1.87;1.13;;;6.30;99.90;;;;;;4936687;29;20173;-65
2023/01/13 17:18:59;;;;;;;2.73;1.60;;;6.30;99.90;;;;;;4925394;29;20465;-64
2023/01/13 17:21:25;;;;;;;1.50;1.40;;;6.10;99.90;;;;;;4918106;29;20175;-68
2023/01/13 17:23:50;;;;;;;1.53;1.40;;;6.10;99.90;;;;;;4936403;29;20280;-69
2023/01/13 17:26:35;;;;;;;7.27;1.80;;;6.10;99.90;;;;;;4935955;29;20165;-69
2023/01/13 17:29:03;;;;;;;1.65;1.25;;;6.00;99.90;;;;;;4936360;29;20188;-69
2023/01/13 17:31:29;;;;;;;2.17;1.90;;;6.10;99.90;;;;;;4936049;29;20186;-64
2023/01/13 17:33:54;;;;;;;2.60;2.20;;;6.10;99.90;;;;;;4933628;29;20687;-64
2023/01/13 17:36:20;;;;;;;1.63;1.50;;;6.30;99.90;;;;;;4935862;29;20580;-69
2023/01/13 17:38:46;;;;;;;1.80;1.40;;;6.40;99.90;;;;;;4935599;29;20493;-72
2023/01/13 17:41:12;;;;;;;3.50;1.77;;;6.40;99.90;;;;;;4936035;29;20224;-70
2023/01/13 17:43:37;;;;;;;2.90;1.50;;;6.60;99.90;;;;;;4939709;29;20169;-74
2023/01/13 17:46:07;;;;;;;3.40;1.53;;;6.60;99.90;;;;;;4941818;29;20183;-71
2023/01/13 17:48:33;;;;;;;1.85;1.52;;;6.80;99.90;;;;;;4935151;29;20178;-72
2023/01/13 17:50:59;;;;;;;1.70;1.33;;;6.90;99.90;;;;;;4935967;29;20184;-72
2023/01/13 17:53:25;;;;;;;3.47;1.37;;;7.00;99.90;;;;;;4935066;29;20182;-70
2023/01/13 17:55:52;;;;;;;2.30;1.17;;;7.00;99.90;;;;;;4940328;29;20435;-69
2023/01/13 17:58:19;;;;;;;4.15;1.80;;;7.20;99.90;;;;;;4942247;29;20205;-69
2023/01/13 18:00:45;;;;;;;2.45;1.02;;;7.20;99.90;;;;;;4935778;29;20179;-70
2023/01/13 18:03:11;;;;;;;3.30;1.80;;;7.30;99.90;;;;;;4935087;29;20176;-68
2023/01/13 18:05:37;;;;;;;1.15;1.15;;;7.40;99.90;;;;;;4954716;29;20302;-69
2023/01/13 18:08:03;;;;;;;1.20;1.13;;;7.50;99.90;;;;;;4938195;29;20547;-68
2023/01/13 18:10:29;;;;;;;2.75;1.70;;;7.50;99.90;;;;;;4935646;29;20185;-67
2023/01/13 18:12:55;;;;;;;3.30;0.90;;;7.60;99.90;;;;;;4918478;29;20696;-71
2023/01/13 18:15:21;;;;;;;2.57;1.50;;;7.60;99.90;;;;;;4930124;29;20237;-69
2023/01/13 18:17:47;;;;;;;1.60;1.20;;;7.70;99.90;;;;;;4917904;29;20219;-71
2023/01/13 18:28:30;;;;;;;4.97;0.70;;;7.60;99.90;;;;;;4936961;29;20187;-65
2023/01/13 18:30:56;;;;;;;1.50;1.40;;;7.60;99.90;;;;;;4944921;29;20176;-69
2023/01/13 18:33:21;;;;;;;1.80;1.00;;;7.60;99.90;;;;;;4945912;29;20631;-68
2023/01/13 18:35:47;;;;;;;13.03;2.40;;;7.60;99.90;;;;;;4935763;29;20205;-69
2023/01/13 18:38:19;;;;;;;3.53;1.43;;;7.50;99.90;;;;;;4924124;29;20342;-70
2023/01/13 18:40:45;;;;;;;1.50;1.40;;;7.50;99.90;;;;;;4930988;29;20162;-69
2023/01/13 18:43:10;;;;;;;5.13;1.87;;;7.40;99.90;;;;;;4934643;29;20180;-69
2023/01/13 18:45:36;;;;;;;1.20;1.10;;;7.40;99.90;;;;;;4935334;29;20186;-70
2023/01/13 18:48:03;;;;;;;1.17;0.97;;;7.30;99.90;;;;;;4918254;29;20666;-69
2023/01/13 18:50:29;;;;;;;1.38;1.10;;;7.30;99.90;;;;;;4934586;29;20188;-69
2023/01/13 18:52:55;;;;;;;0.80;0.80;;;7.30;99.90;;;;;;4939993;29;20264;-69
2023/01/13 18:55:22;;;;;;;1.08;1.02;;;7.30;99.90;;;;;;4938403;29;20688;-70
2023/01/13 18:57:48;;;;;;;1.45;1.27;;;7.30;99.90;;;;;;4938399;29;20251;-69
2023/01/13 19:00:17;;;;;;;1.20;1.20;;;7.30;99.90;;;;;;4938494;29;20256;-69
2023/01/13 19:02:43;;;;;;;5.20;1.17;;;7.30;99.90;;;;;;4938355;29;20192;-69
2023/01/13 19:05:09;;;;;;;0.67;0.67;;;7.40;99.90;;;;;;4935335;29;20204;-69
2023/01/13 19:07:35;;;;;;;2.70;1.43;;;7.40;99.90;;;;;;4938317;29;20177;-69
2023/01/13 19:10:03;;;;;;;2.15;1.10;;;7.50;99.90;;;;;;4937601;29;20476;-70
2023/01/13 19:12:29;;;;;;;0.90;0.82;;;7.50;99.90;;;;;;4919431;29;20211;-70